createdAt,value
2022-12-15T00:00:37.079Z,100343.41
2022-12-15T00:03:26.448Z,100316.09
2022-12-15T00:06:15.459Z,100339.31
2022-12-15T00:09:04.113Z,100338.97
2022-12-15T00:11:52.964Z,100331.94
2022-12-15T00:14:41.424Z,100317.91
2022-12-15T00:17:30.147Z,100319.59
2022-12-15T00:20:18.561Z,100342.91
2022-12-15T00:23:07.338Z,100337.34
2022-12-15T00:25:55.925Z,100330.59
2022-12-15T00:28:44.420Z,100336.38
2022-12-15T00:31:33.112Z,100332.00
2022-12-15T00:34:21.831Z,100318.31
2022-12-15T00:37:10.553Z,100312.19
2022-12-15T00:39:40.836Z,100310.22
2022-12-15T00:42:11.475Z,100320.47
2022-12-15T00:44:42.085Z,100325.78
2022-12-15T00:47:12.247Z,100316.41
2022-12-15T00:50:01.162Z,100333.19
2022-12-15T00:52:49.662Z,100336.53
2022-12-15T00:55:38.504Z,100338.88
2022-12-15T00:58:27.136Z,100342.84
2022-12-15T01:01:15.577Z,100336.75
2022-12-15T01:04:04.173Z,100327.88
2022-12-15T01:06:52.910Z,100338.25
2022-12-15T01:09:42.253Z,100329.06
2022-12-15T01:12:30.950Z,100317.97
2022-12-15T01:15:19.529Z,100319.31
2022-12-15T01:18:08.167Z,100325.19
2022-12-15T01:20:38.501Z,100320.56
2022-12-15T01:23:08.743Z,100326.50
2022-12-15T01:25:39.876Z,100328.19
2022-12-15T01:28:10.047Z,100319.53
2022-12-15T01:30:40.211Z,100319.63
2022-12-15T01:33:10.419Z,100323.16
2022-12-15T01:35:40.593Z,100320.72
2022-12-15T01:38:11.343Z,100320.09
2022-12-15T01:40:50.475Z,100320.88
2022-12-15T01:43:26.365Z,100327.06
2022-12-15T01:46:02.455Z,100337.38
2022-12-15T01:48:43.233Z,100315.81
2022-12-15T01:51:16.193Z,100326.44
2022-12-15T01:54:15.742Z,100303.84
2022-12-15T01:56:54.836Z,100303.56
2022-12-15T01:59:31.138Z,100314.00
2022-12-15T02:02:03.278Z,100310.47
2022-12-15T02:04:34.433Z,100292.38
2022-12-15T02:07:04.663Z,100299.28
2022-12-15T02:09:34.874Z,100301.91
2022-12-15T02:12:14.200Z,100321.69
2022-12-15T02:15:06.811Z,100317.69
2022-12-15T02:18:03.513Z,100311.00
2022-12-15T02:21:15.206Z,100298.75
2022-12-15T02:23:57.281Z,100317.91
2022-12-15T02:27:12.166Z,100320.50
2022-12-15T02:30:10.059Z,100326.41
2022-12-15T02:32:54.070Z,100307.97
2022-12-15T02:35:37.950Z,100316.53
2022-12-15T02:38:09.678Z,100320.91
2022-12-15T02:40:40.443Z,100324.38
2022-12-15T02:43:11.288Z,100312.59
2022-12-15T02:45:57.972Z,100304.09
2022-12-15T02:48:49.519Z,100308.69
2022-12-15T02:52:10.068Z,100298.16
2022-12-15T02:54:58.616Z,100317.22
2022-12-15T02:57:44.279Z,100311.94
2022-12-15T03:00:15.875Z,100306.81
2022-12-15T03:02:51.234Z,100315.38
2022-12-15T03:05:24.521Z,100324.63
2022-12-15T03:07:55.058Z,100307.44
2022-12-15T03:10:26.079Z,100313.28
2022-12-15T03:12:56.320Z,100310.50
2022-12-15T03:15:31.724Z,100303.63
2022-12-15T03:18:05.273Z,100308.88
2022-12-15T03:20:35.513Z,100296.34
2022-12-15T03:23:05.642Z,100315.19
2022-12-15T03:25:35.955Z,100304.66
2022-12-15T03:28:06.094Z,100298.78
2022-12-15T03:30:36.317Z,100305.28
2022-12-15T03:33:06.614Z,100311.13
2022-12-15T03:35:36.754Z,100309.47
2022-12-15T03:38:07.200Z,100301.44
2022-12-15T03:40:37.388Z,100309.06
2022-12-15T03:43:07.497Z,100313.34
2022-12-15T03:45:37.730Z,100313.97
2022-12-15T03:48:07.993Z,100308.50
2022-12-15T03:50:38.226Z,100305.16
2022-12-15T03:53:08.522Z,100306.81
2022-12-15T03:55:39.143Z,100307.78
2022-12-15T03:58:09.190Z,100305.97
2022-12-15T04:00:39.525Z,100316.16
2022-12-15T04:03:11.622Z,100307.59
2022-12-15T04:05:41.927Z,100311.91
2022-12-15T04:08:13.055Z,100305.88
2022-12-15T04:10:43.788Z,100309.09
2022-12-15T04:13:14.082Z,100309.97
2022-12-15T04:15:44.296Z,100292.38
2022-12-15T04:18:14.509Z,100315.66
2022-12-15T04:20:44.630Z,100312.97
2022-12-15T04:23:14.947Z,100321.53
2022-12-15T04:26:03.777Z,100327.31
2022-12-15T04:28:53.009Z,100322.59
2022-12-15T04:31:51.689Z,100331.75
2022-12-15T04:34:42.590Z,100328.88
2022-12-15T04:37:33.398Z,100335.50
2022-12-15T04:40:24.464Z,100344.66
2022-12-15T04:43:13.366Z,100338.28
2022-12-15T04:46:02.094Z,100342.97
2022-12-15T04:48:50.872Z,100340.88
2022-12-15T04:51:39.482Z,100348.47
2022-12-15T04:54:28.041Z,100353.28
2022-12-15T04:57:16.763Z,100332.34
2022-12-15T05:00:05.460Z,100346.28
2022-12-15T05:02:54.017Z,100339.41
2022-12-15T05:05:42.564Z,100321.25
2022-12-15T05:08:31.314Z,100339.88
2022-12-15T05:11:19.870Z,100336.09
2022-12-15T05:14:08.430Z,100339.59
2022-12-15T05:16:57.025Z,100346.41
2022-12-15T05:19:45.556Z,100332.19
2022-12-15T05:22:34.345Z,100339.34
2022-12-15T05:25:24.597Z,100350.31
2022-12-15T05:28:13.241Z,100351.09
2022-12-15T05:31:01.979Z,100353.56
2022-12-15T05:33:32.291Z,100348.13
2022-12-15T05:36:02.721Z,100349.69
2022-12-15T05:38:33.040Z,100353.53
2022-12-15T05:41:03.214Z,100366.00
2022-12-15T05:43:33.937Z,100366.50
2022-12-15T05:46:05.326Z,100376.81
2022-12-15T05:48:36.560Z,100344.75
2022-12-15T05:51:11.321Z,100375.44
2022-12-15T05:53:42.785Z,100378.94
2022-12-15T05:56:14.825Z,100379.63
2022-12-15T05:58:45.769Z,100379.34
2022-12-15T06:01:18.469Z,100387.91
2022-12-15T06:03:48.734Z,100391.19
2022-12-15T06:06:19.418Z,100384.13
2022-12-15T06:08:50.153Z,100392.50
2022-12-15T06:11:22.351Z,100400.47
2022-12-15T06:13:53.795Z,100396.00
2022-12-15T06:16:26.261Z,100415.63
2022-12-15T06:19:01.750Z,100420.78
2022-12-15T06:21:37.781Z,100399.91
2022-12-15T06:24:08.347Z,100414.50
2022-12-15T06:26:40.321Z,100426.72
2022-12-15T06:29:12.363Z,100425.75
2022-12-15T06:31:42.979Z,100445.19
2022-12-15T06:34:19.010Z,100440.06
2022-12-15T06:36:49.473Z,100430.38
2022-12-15T06:39:19.664Z,100453.59
2022-12-15T06:41:49.834Z,100454.16
2022-12-15T06:44:20.701Z,100457.78
2022-12-15T06:46:50.918Z,100454.75
2022-12-15T06:49:21.786Z,100454.59
2022-12-15T06:51:51.943Z,100473.38
2022-12-15T06:54:23.419Z,100480.94
2022-12-15T06:56:53.582Z,100458.13
2022-12-15T06:59:23.726Z,100486.00
2022-12-15T07:01:54.133Z,100480.94
2022-12-15T07:04:24.422Z,100480.16
2022-12-15T07:06:54.748Z,100485.31
2022-12-15T07:09:26.369Z,100490.97
2022-12-15T07:11:56.578Z,100480.41
2022-12-15T07:14:28.004Z,100502.81
2022-12-15T07:16:58.215Z,100515.09
2022-12-15T07:19:28.461Z,100508.94
2022-12-15T07:21:59.206Z,100514.00
2022-12-15T07:24:29.504Z,100517.41
2022-12-15T07:26:59.636Z,100527.13
2022-12-15T07:29:29.770Z,100511.59
2022-12-15T07:32:01.180Z,100527.31
2022-12-15T07:34:31.582Z,100528.94
2022-12-15T07:37:01.995Z,100535.28
2022-12-15T07:39:32.319Z,100539.75
2022-12-15T07:42:02.961Z,100539.03
2022-12-15T07:44:33.659Z,100535.75
2022-12-15T07:47:03.949Z,100545.28
2022-12-15T07:49:34.596Z,100542.94
2022-12-15T07:52:04.873Z,100552.53
2022-12-15T07:54:35.151Z,100532.81
2022-12-15T07:57:07.718Z,100557.22
2022-12-15T07:59:37.923Z,100554.97
2022-12-15T08:02:10.686Z,100563.88
2022-12-15T08:04:42.016Z,100552.28
2022-12-15T08:07:12.381Z,100554.09
2022-12-15T08:09:42.562Z,100567.13
2022-12-15T08:12:12.861Z,100557.75
2022-12-15T08:14:43.139Z,100560.66
2022-12-15T08:17:13.320Z,100565.13
2022-12-15T08:19:43.861Z,100574.03
2022-12-15T08:22:15.586Z,100575.69
2022-12-15T08:24:45.961Z,100586.47
2022-12-15T08:27:17.296Z,100577.38
2022-12-15T08:29:52.124Z,100595.75
2022-12-15T08:32:23.072Z,100592.00
2022-12-15T08:34:53.971Z,100591.38
2022-12-15T08:37:24.199Z,100592.94
2022-12-15T08:39:54.561Z,100610.44
2022-12-15T08:42:24.763Z,100605.53
2022-12-15T08:44:54.988Z,100605.09
2022-12-15T08:47:25.797Z,100608.00
2022-12-15T08:49:56.137Z,100618.84
2022-12-15T08:52:26.308Z,100617.44
2022-12-15T08:54:56.498Z,100625.63
2022-12-15T08:57:27.498Z,100632.13
2022-12-15T08:59:57.626Z,100624.44
2022-12-15T09:02:28.007Z,100629.69
2022-12-15T09:04:58.311Z,100644.53
2022-12-15T09:07:29.016Z,100637.38
2022-12-15T09:09:59.265Z,100647.06
2022-12-15T09:12:29.626Z,100647.66
2022-12-15T09:14:59.737Z,100626.00
2022-12-15T09:17:29.934Z,100637.97
2022-12-15T09:20:00.065Z,100641.72
2022-12-15T09:22:31.652Z,100630.56
2022-12-15T09:25:01.800Z,100639.25
2022-12-15T09:27:32.188Z,100628.69
2022-12-15T09:30:03.153Z,100634.47
2022-12-15T09:32:33.478Z,100618.13
2022-12-15T09:35:03.997Z,100638.69
2022-12-15T09:37:34.120Z,100635.53
2022-12-15T09:40:06.848Z,100645.88
2022-12-15T09:42:37.381Z,100646.19
2022-12-15T09:45:43.664Z,100654.88
2022-12-15T09:48:21.745Z,100647.53
2022-12-15T09:50:55.017Z,100654.50
2022-12-15T09:53:53.733Z,100655.03
2022-12-15T09:56:26.240Z,100655.16
2022-12-15T09:59:17.668Z,100666.47
2022-12-15T10:02:07.163Z,100663.06
2022-12-15T10:05:00.777Z,100665.16
2022-12-15T10:07:46.304Z,100668.06
2022-12-15T10:10:34.706Z,100660.81
2022-12-15T10:13:17.799Z,100654.41
2022-12-15T10:16:01.501Z,100652.56
2022-12-15T10:18:46.156Z,100657.66
2022-12-15T10:21:22.443Z,100646.69
2022-12-15T10:23:54.463Z,100646.09
2022-12-15T10:26:32.518Z,100638.38
2022-12-15T10:29:34.084Z,100642.38
2022-12-15T10:32:14.700Z,100640.00
2022-12-15T10:34:44.947Z,100640.81
2022-12-15T10:37:20.749Z,100638.56
2022-12-15T10:39:51.643Z,100646.50
2022-12-15T10:42:23.912Z,100628.91
2022-12-15T10:44:56.721Z,100634.31
2022-12-15T10:47:31.450Z,100649.41
2022-12-15T10:50:25.221Z,100644.91
2022-12-15T10:52:55.634Z,100643.88
2022-12-15T10:55:59.541Z,100650.25
2022-12-15T10:58:29.721Z,100656.44
2022-12-15T11:01:09.610Z,100652.66
2022-12-15T11:03:40.928Z,100651.75
2022-12-15T11:06:17.723Z,100645.28
2022-12-15T11:08:49.314Z,100628.13
2022-12-15T11:11:46.509Z,100644.00
2022-12-15T11:14:24.388Z,100612.78
2022-12-15T11:16:57.757Z,100655.34
2022-12-15T11:19:35.620Z,100654.63
2022-12-15T11:22:37.853Z,100655.44
2022-12-15T11:25:29.496Z,100657.13
2022-12-15T11:28:03.464Z,100638.19
2022-12-15T11:30:42.634Z,100648.44
2022-12-15T11:33:13.081Z,100654.34
2022-12-15T11:35:56.167Z,100660.28
2022-12-15T11:38:40.278Z,100658.47
2022-12-15T11:41:50.599Z,100664.16
2022-12-15T11:44:35.727Z,100664.69
2022-12-15T11:47:30.673Z,100669.09
2022-12-15T11:50:09.547Z,100659.88
2022-12-15T11:52:52.300Z,100668.69
2022-12-15T11:55:47.293Z,100658.69
2022-12-15T11:58:29.257Z,100660.44
2022-12-15T12:01:16.441Z,100665.22
2022-12-15T12:04:27.223Z,100668.38
2022-12-15T12:07:09.381Z,100666.81
2022-12-15T12:09:48.747Z,100660.22
2022-12-15T12:12:21.871Z,100661.47
2022-12-15T12:15:08.069Z,100654.25
2022-12-15T12:17:46.221Z,100668.13
2022-12-15T12:20:25.171Z,100667.25
2022-12-15T12:23:06.085Z,100679.25
2022-12-15T12:26:02.911Z,100687.53
2022-12-15T12:28:48.885Z,100688.09
2022-12-15T12:31:44.157Z,100697.31
2022-12-15T12:34:43.686Z,100695.25
2022-12-15T12:37:22.991Z,100700.31
2022-12-15T12:39:56.296Z,100693.97
2022-12-15T12:42:42.594Z,100708.91
2022-12-15T12:45:14.723Z,100696.91
2022-12-15T12:47:50.931Z,100707.56
2022-12-15T12:50:24.209Z,100712.66
2022-12-15T12:53:03.539Z,100724.31
2022-12-15T12:55:42.801Z,100732.59
2022-12-15T12:58:45.586Z,100740.06
2022-12-15T13:01:31.939Z,100676.81
2022-12-15T13:04:34.088Z,100744.28
2022-12-15T13:07:25.236Z,100747.16
2022-12-15T13:10:23.169Z,100752.91
2022-12-15T13:13:00.868Z,100752.44
2022-12-15T13:15:30.978Z,100756.66
2022-12-15T13:18:06.627Z,100758.81
2022-12-15T13:20:38.412Z,100764.59
2022-12-15T13:23:23.835Z,100778.91
2022-12-15T13:25:57.239Z,100766.19
2022-12-15T13:28:41.121Z,100782.22
2022-12-15T13:31:21.032Z,100771.78
2022-12-15T13:33:51.418Z,100780.31
2022-12-15T13:36:37.077Z,100772.50
2022-12-15T13:39:13.327Z,100773.31
2022-12-15T13:45:07.053Z,100778.16
2022-12-15T13:47:38.372Z,100765.25
2022-12-15T13:50:28.477Z,100761.50
2022-12-15T13:53:20.007Z,100766.44
2022-12-15T13:56:35.752Z,100762.16
2022-12-15T13:59:25.869Z,100757.59
2022-12-15T14:01:56.917Z,100755.50
2022-12-15T14:04:27.711Z,100769.03
2022-12-15T14:07:01.669Z,100765.25
2022-12-15T14:09:35.771Z,100779.53
2022-12-15T14:12:12.550Z,100781.88
2022-12-15T14:14:50.003Z,100790.91
2022-12-15T14:17:22.727Z,100786.38
2022-12-15T14:19:53.896Z,100804.31
2022-12-15T14:25:18.339Z,100805.56
2022-12-15T14:27:51.054Z,100799.16
2022-12-15T14:30:29.662Z,100806.19
2022-12-15T14:33:12.459Z,100802.47
2022-12-15T14:39:00.546Z,100804.75
2022-12-15T14:41:37.846Z,100807.03
2022-12-15T14:44:39.099Z,100812.03
2022-12-15T14:47:21.594Z,100813.41
2022-12-15T14:49:51.935Z,100807.47
2022-12-15T14:52:28.754Z,100808.25
2022-12-15T14:55:04.137Z,100810.53
2022-12-15T14:57:48.354Z,100820.69
2022-12-15T15:00:34.420Z,100822.16
2022-12-15T15:03:05.904Z,100800.75
2022-12-15T15:03:14.380Z,100796.09
2022-12-15T15:06:02.544Z,100802.19
2022-12-15T15:08:43.614Z,100814.00
2022-12-15T15:11:23.301Z,100824.09
2022-12-15T15:13:56.291Z,100824.00
2022-12-15T15:16:27.044Z,100835.28
2022-12-15T15:19:00.419Z,100829.75
2022-12-15T15:21:34.083Z,100832.47
2022-12-15T15:24:22.779Z,100835.88
2022-12-15T15:26:53.654Z,100833.88
2022-12-15T15:29:41.263Z,100834.25
2022-12-15T15:32:23.201Z,100834.56
2022-12-15T15:34:53.411Z,100844.31
2022-12-15T15:37:25.731Z,100853.84
2022-12-15T15:39:56.484Z,100835.44
2022-12-15T15:42:32.530Z,100870.31
2022-12-15T15:45:03.356Z,100863.41
2022-12-15T15:47:33.575Z,100861.94
2022-12-15T15:50:03.818Z,100861.56
2022-12-15T15:52:34.578Z,100869.66
2022-12-15T15:55:05.387Z,100867.44
2022-12-15T15:57:35.479Z,100858.97
2022-12-15T16:00:17.924Z,100873.75
2022-12-15T16:02:48.339Z,100860.28
2022-12-15T16:05:18.753Z,100870.88
2022-12-15T16:07:49.060Z,100855.97
2022-12-15T16:10:21.095Z,100861.31
2022-12-15T16:12:54.458Z,100864.22
2022-12-15T16:15:27.382Z,100856.78
2022-12-15T16:17:59.370Z,100878.25
2022-12-15T16:20:30.634Z,100866.59
2022-12-15T16:23:04.790Z,100878.50
2022-12-15T16:25:48.572Z,100847.31
2022-12-15T16:28:29.018Z,100871.06
2022-12-15T16:30:59.514Z,100861.75
2022-12-15T16:33:30.205Z,100858.50
2022-12-15T16:36:00.418Z,100850.72
2022-12-15T16:38:32.622Z,100855.47
2022-12-15T16:41:08.471Z,100858.97
2022-12-15T16:43:44.376Z,100865.00
2022-12-15T16:46:17.810Z,100869.22
2022-12-15T16:48:47.973Z,100875.78
2022-12-15T16:51:30.820Z,100875.78
2022-12-15T16:54:01.073Z,100876.59
2022-12-15T16:56:31.384Z,100885.78
2022-12-15T16:59:32.565Z,100873.78
2022-12-15T17:01:51.843Z,100893.41
2022-12-15T17:04:22.945Z,100878.00
2022-12-15T17:06:53.491Z,100881.41
2022-12-15T17:09:25.682Z,100871.84
2022-12-15T17:12:02.750Z,100862.38
2022-12-15T17:14:32.822Z,100872.22
2022-12-15T17:17:03.187Z,100883.94
2022-12-15T17:19:33.305Z,100875.25
2022-12-15T17:22:03.563Z,100872.44
2022-12-15T17:24:36.045Z,100882.88
2022-12-15T17:27:06.251Z,100888.16
2022-12-15T17:29:36.491Z,100888.94
2022-12-15T17:32:12.821Z,100890.50
2022-12-15T17:34:42.889Z,100887.78
2022-12-15T17:37:16.034Z,100898.81
2022-12-15T17:39:51.438Z,100901.00
2022-12-15T17:42:21.856Z,100913.78
2022-12-15T17:44:52.086Z,100916.94
2022-12-15T17:47:24.442Z,100909.03
2022-12-15T17:49:54.587Z,100930.97
2022-12-15T17:52:28.570Z,100929.31
2022-12-15T17:54:58.936Z,100934.75
2022-12-15T17:57:31.977Z,100941.31
2022-12-15T18:00:03.939Z,100928.53
2022-12-15T18:02:34.300Z,100937.19
2022-12-15T18:05:06.300Z,100939.03
2022-12-15T18:07:36.634Z,100944.38
2022-12-15T18:10:07.403Z,100950.84
2022-12-15T18:12:37.586Z,100949.88
2022-12-15T18:15:19.519Z,100956.91
2022-12-15T18:17:50.113Z,100962.97
2022-12-15T18:20:20.901Z,100967.44
2022-12-15T18:22:52.491Z,100978.97
2022-12-15T18:25:28.392Z,100967.78
2022-12-15T18:28:01.291Z,100971.72
2022-12-15T18:30:31.649Z,100988.88
2022-12-15T18:33:01.961Z,100979.50
2022-12-15T18:35:40.159Z,100991.00
2022-12-15T18:38:22.128Z,100995.38
2022-12-15T18:40:54.498Z,101005.28
2022-12-15T18:43:28.691Z,101028.47
2022-12-15T18:45:59.550Z,101026.84
2022-12-15T18:48:32.552Z,101017.06
2022-12-15T18:51:11.541Z,101026.19
2022-12-15T18:53:41.884Z,101034.00
2022-12-15T18:56:15.007Z,101040.03
2022-12-15T18:58:45.759Z,101034.25
2022-12-15T19:01:16.432Z,101035.72
2022-12-15T19:03:46.608Z,101034.84
2022-12-15T19:06:26.177Z,101051.53
2022-12-15T19:08:56.473Z,101043.16
2022-12-15T19:11:34.201Z,101051.91
2022-12-15T19:14:31.745Z,101057.09
2022-12-15T19:17:20.333Z,101063.81
2022-12-15T19:20:08.906Z,101057.78
2022-12-15T19:22:39.697Z,101037.69
2022-12-15T19:25:25.029Z,101049.28
2022-12-15T19:27:59.820Z,101041.94
2022-12-15T19:30:40.216Z,101060.69
2022-12-15T19:33:14.186Z,101063.31
2022-12-15T19:35:47.569Z,101058.34
2022-12-15T19:38:28.961Z,101047.28
2022-12-15T19:41:00.415Z,101066.25
2022-12-15T19:43:30.929Z,101054.25
2022-12-15T19:46:01.447Z,101068.16
2022-12-15T19:48:31.691Z,101054.09
2022-12-15T19:51:02.278Z,101058.09
2022-12-15T19:53:32.727Z,101057.34
2022-12-15T19:56:04.364Z,101065.31
2022-12-15T19:58:36.523Z,101061.19
2022-12-15T20:01:10.363Z,101083.75
2022-12-15T20:03:45.461Z,101057.34
2022-12-15T20:06:18.869Z,101061.13
2022-12-15T20:08:51.067Z,101066.75
2022-12-15T20:11:26.557Z,101060.19
2022-12-15T20:13:57.005Z,101062.03
2022-12-15T20:16:27.270Z,101059.72
2022-12-15T20:18:57.551Z,101068.50
2022-12-15T20:21:36.129Z,101066.31
2022-12-15T20:24:16.498Z,101063.94
2022-12-15T20:26:47.361Z,101075.63
2022-12-15T20:29:25.155Z,101075.03
2022-12-15T20:31:56.875Z,101062.53
2022-12-15T20:34:27.403Z,101077.19
2022-12-15T20:36:57.864Z,101072.81
2022-12-15T20:39:29.672Z,101080.72
2022-12-15T20:41:59.970Z,101075.63
2022-12-15T20:44:30.115Z,101081.84
2022-12-15T20:47:00.329Z,101082.66
2022-12-15T20:49:30.712Z,101090.72
2022-12-15T20:52:00.899Z,101079.50
2022-12-15T20:54:31.140Z,101072.53
2022-12-15T20:57:01.564Z,101084.31
2022-12-15T20:59:31.803Z,101077.81
2022-12-15T21:02:02.093Z,101077.31
2022-12-15T21:04:32.933Z,101060.72
2022-12-15T21:07:03.355Z,101067.47
2022-12-15T21:09:33.809Z,101076.50
2022-12-15T21:12:16.632Z,101075.47
2022-12-15T21:14:48.090Z,101088.34
2022-12-15T21:17:23.220Z,101080.47
2022-12-15T21:19:53.581Z,101098.63
2022-12-15T21:22:27.776Z,101092.03
2022-12-15T21:24:59.002Z,101077.56
2022-12-15T21:27:29.327Z,101092.22
2022-12-15T21:29:59.486Z,101103.44
2022-12-15T21:32:29.705Z,101085.91
2022-12-15T21:35:00.242Z,101124.75
2022-12-15T21:37:31.074Z,101122.13
2022-12-15T21:40:01.723Z,101106.97
2022-12-15T21:42:35.660Z,101099.22
2022-12-15T21:45:13.986Z,101116.44
2022-12-15T21:48:02.967Z,101125.56
2022-12-15T21:50:33.884Z,101123.63
2022-12-15T21:53:05.796Z,101117.69
2022-12-15T21:55:36.016Z,101124.16
2022-12-15T21:58:18.312Z,101117.94
2022-12-15T22:00:48.921Z,101123.28
2022-12-15T22:03:19.186Z,101130.91
2022-12-15T22:05:49.473Z,101128.38
2022-12-15T22:08:22.286Z,101129.34
2022-12-15T22:10:53.128Z,101139.78
2022-12-15T22:13:24.969Z,101141.63
2022-12-15T22:15:55.194Z,101126.88
2022-12-15T22:18:25.318Z,101130.47
2022-12-15T22:20:56.457Z,101134.69
2022-12-15T22:23:26.578Z,101131.97
2022-12-15T22:25:56.938Z,101121.34
2022-12-15T22:28:28.600Z,101142.50
2022-12-15T22:31:01.661Z,101141.44
2022-12-15T22:33:32.048Z,101135.22
2022-12-15T22:36:02.177Z,101140.66
2022-12-15T22:38:32.712Z,101138.38
2022-12-15T22:41:04.600Z,101128.91
2022-12-15T22:43:39.988Z,101159.31
2022-12-15T22:46:13.645Z,101148.00
2022-12-15T22:48:45.783Z,101144.44
2022-12-15T22:51:18.027Z,101134.88
2022-12-15T22:53:48.188Z,101139.09
2022-12-15T22:56:28.955Z,101138.38
2022-12-15T22:59:06.130Z,101144.50
2022-12-15T23:01:36.243Z,101152.22
2022-12-15T23:04:06.522Z,101153.81
2022-12-15T23:06:36.868Z,101143.03
2022-12-15T23:09:07.059Z,101136.16
2022-12-15T23:11:37.412Z,101132.47
2022-12-15T23:14:15.953Z,101153.38
2022-12-15T23:16:46.801Z,101145.47
2022-12-15T23:19:26.071Z,101150.75
2022-12-15T23:21:56.247Z,101137.75
2022-12-15T23:24:27.134Z,101144.44
2022-12-15T23:26:57.342Z,101144.16
2022-12-15T23:29:27.604Z,101150.28
2022-12-15T23:31:58.044Z,101154.94
2022-12-15T23:34:28.242Z,101154.22
2022-12-15T23:36:58.548Z,101155.91
2022-12-15T23:39:28.731Z,101158.38
2022-12-15T23:41:58.847Z,101161.00
2022-12-15T23:44:29.120Z,101154.88
2022-12-15T23:46:59.488Z,101161.19
2022-12-15T23:49:29.956Z,101151.88
2022-12-15T23:52:00.080Z,101147.50
2022-12-15T23:54:30.365Z,101160.38
2022-12-15T23:57:01.146Z,101159.53
2022-12-15T23:59:31.440Z,101153.38
